createdAt,value
2023-04-15T00:00:20.804Z,4.9
2023-04-15T00:03:22.946Z,4
2023-04-15T00:06:24.684Z,4.5
2023-04-15T00:09:26.640Z,4.5
2023-04-15T00:12:28.625Z,4.4
2023-04-15T00:15:30.589Z,4.7
2023-04-15T00:18:32.564Z,4.5
2023-04-15T00:21:34.524Z,4.7
2023-04-15T00:24:36.550Z,5.3
2023-04-15T00:27:38.428Z,4.9
2023-04-15T00:30:40.435Z,4.9
2023-04-15T00:33:42.345Z,5.5
2023-04-15T00:36:44.318Z,5
2023-04-15T00:39:46.272Z,4.3
2023-04-15T00:42:48.461Z,4.1
2023-04-15T00:45:50.218Z,4.8
2023-04-15T00:48:52.135Z,4.3
2023-04-15T00:51:54.103Z,4.6
2023-04-15T00:54:56.064Z,4.5
2023-04-15T00:57:58.016Z,5
2023-04-15T01:01:00.062Z,4.9
2023-04-15T01:04:02.132Z,4.9
2023-04-15T01:07:03.952Z,4.4
2023-04-15T01:10:05.914Z,4.8
2023-04-15T01:13:07.878Z,4.9
2023-04-15T01:16:09.899Z,4.5
2023-04-15T01:19:11.848Z,4.6
2023-04-15T01:22:13.806Z,3.9
2023-04-15T01:25:15.757Z,5.2
2023-04-15T01:28:17.724Z,5
2023-04-15T01:31:19.699Z,4.7
2023-04-15T01:34:21.627Z,4.8
2023-04-15T01:37:23.586Z,4.9
2023-04-15T01:40:25.539Z,4.2
2023-04-15T01:43:27.507Z,5
2023-04-15T01:46:29.542Z,4.4
2023-04-15T01:49:31.464Z,5.1
2023-04-15T01:52:33.422Z,4.5
2023-04-15T01:55:35.414Z,5.4
2023-04-15T01:58:37.357Z,5.4
2023-04-15T02:01:39.317Z,4.3
2023-04-15T02:04:41.308Z,4
2023-04-15T02:07:43.248Z,3.8
2023-04-15T02:10:45.233Z,4.7
2023-04-15T02:13:47.187Z,4.9
2023-04-15T02:16:49.213Z,3.9
2023-04-15T02:19:51.108Z,3.7
2023-04-15T02:22:53.067Z,4.1
2023-04-15T02:25:55.042Z,4.4
2023-04-15T02:28:57.273Z,3.6
2023-04-15T02:31:58.983Z,4.1
2023-04-15T02:35:00.927Z,4.1
2023-04-15T02:38:02.866Z,4.4
2023-04-15T02:41:04.815Z,4.7
2023-04-15T02:44:06.931Z,4.4
2023-04-15T02:47:08.745Z,4.7
2023-04-15T02:50:10.738Z,4.6
2023-04-15T02:53:12.674Z,4.7
2023-04-15T02:56:14.634Z,4.5
2023-04-15T02:59:16.596Z,4.4
2023-04-15T03:02:18.588Z,3.9
2023-04-15T03:05:20.570Z,4.3
2023-04-15T03:08:22.527Z,3.9
2023-04-15T03:11:24.501Z,4.1
2023-04-15T03:14:26.460Z,3.7
2023-04-15T03:17:28.431Z,3.9
2023-04-15T03:20:30.412Z,4.1
2023-04-15T03:23:32.374Z,5
2023-04-15T03:26:34.310Z,4.4
2023-04-15T03:29:36.268Z,3.8
2023-04-15T03:32:38.314Z,4.4
2023-04-15T03:35:40.173Z,4.9
2023-04-15T03:38:42.145Z,4.8
2023-04-15T03:41:44.252Z,4.5
2023-04-15T03:44:46.115Z,4.4
2023-04-15T03:47:48.099Z,4.7
2023-04-15T03:50:50.012Z,4.7
2023-04-15T03:53:51.981Z,5.1
2023-04-15T03:56:53.938Z,4.3
2023-04-15T03:59:55.924Z,4.8
2023-04-15T04:02:58.056Z,5
2023-04-15T04:05:59.812Z,4.7
2023-04-15T04:09:01.941Z,5.1
2023-04-15T04:12:03.785Z,4.3
2023-04-15T04:15:05.752Z,4.8
2023-04-15T04:18:07.703Z,5.2
2023-04-15T04:21:09.688Z,4.3
2023-04-15T04:24:11.657Z,4.6
2023-04-15T04:27:13.609Z,4.4
2023-04-15T04:30:15.544Z,4.5
2023-04-15T04:33:17.514Z,4.1
2023-04-15T04:36:19.476Z,4
2023-04-15T04:39:21.513Z,4
2023-04-15T04:42:23.522Z,3.9
2023-04-15T04:45:25.501Z,4.1
2023-04-15T04:48:27.502Z,4.2
2023-04-15T04:51:29.447Z,4.2
2023-04-15T04:54:31.510Z,4.6
2023-04-15T04:57:33.525Z,3.7
2023-04-15T05:00:35.474Z,3.9
2023-04-15T05:03:37.506Z,3.5
2023-04-15T05:06:39.418Z,3.2
2023-04-15T05:09:41.393Z,3.7
2023-04-15T05:12:43.324Z,3.5
2023-04-15T05:15:45.318Z,3.5
2023-04-15T05:18:47.273Z,3.7
2023-04-15T05:21:49.217Z,3.4
2023-04-15T05:24:51.172Z,4
2023-04-15T05:27:53.174Z,4
2023-04-15T05:30:55.137Z,3.7
2023-04-15T05:33:57.103Z,3.7
2023-04-15T05:36:59.074Z,4
2023-04-15T05:40:01.037Z,4.2
2023-04-15T05:43:03.041Z,4.1
2023-04-15T05:46:05.016Z,4.5
2023-04-15T05:49:06.954Z,4.5
2023-04-15T05:52:08.926Z,4.5
2023-04-15T05:55:10.955Z,4.5
2023-04-15T05:58:12.904Z,4
2023-04-15T06:01:14.855Z,4.8
2023-04-15T06:04:16.890Z,4.2
2023-04-15T06:07:18.802Z,3.6
2023-04-15T06:10:20.772Z,4.1
2023-04-15T06:13:22.757Z,3.8
2023-04-15T06:16:24.798Z,3.4
2023-04-15T06:19:26.682Z,5
2023-04-15T06:22:28.650Z,4.9
2023-04-15T06:25:30.612Z,4.4
2023-04-15T06:28:32.571Z,5
2023-04-15T06:31:34.640Z,5.1
2023-04-15T06:34:36.523Z,5.3
2023-04-15T06:37:38.451Z,5
2023-04-15T06:40:40.459Z,4.9
2023-04-15T06:43:42.457Z,5.6
2023-04-15T06:46:44.417Z,5.5
2023-04-15T06:49:46.395Z,4.8
2023-04-15T06:52:48.333Z,4.8
2023-04-15T06:55:50.292Z,4.6
2023-04-15T06:58:52.269Z,5.4
2023-04-15T07:01:54.251Z,4.3
2023-04-15T07:04:56.186Z,3.7
2023-04-15T07:07:58.160Z,4.7
2023-04-15T07:11:00.130Z,4.8
2023-04-15T07:14:02.077Z,4.9
2023-04-15T07:17:04.070Z,4.8
2023-04-15T07:20:06.032Z,4.2
2023-04-15T07:23:08.013Z,5
2023-04-15T07:26:09.967Z,4.8
2023-04-15T07:29:11.946Z,4.3
2023-04-15T07:32:13.908Z,4.6
2023-04-15T07:35:15.868Z,4.8
2023-04-15T07:38:17.872Z,4.3
2023-04-15T07:41:19.875Z,4.4
2023-04-15T07:44:21.783Z,4.9
2023-04-15T07:47:23.815Z,5.6
2023-04-15T07:50:25.686Z,5
2023-04-15T07:53:27.732Z,5.7
2023-04-15T07:56:30.110Z,5.7
2023-04-15T07:59:32.085Z,6.5
2023-04-15T08:02:34.124Z,4.8
2023-04-15T08:05:36.012Z,5.4
2023-04-15T08:08:37.986Z,4
2023-04-15T08:11:39.956Z,6
2023-04-15T08:14:41.921Z,6.1
2023-04-15T08:17:43.893Z,4.8
2023-04-15T08:20:45.852Z,5
2023-04-15T08:23:47.821Z,4.3
2023-04-15T08:26:49.791Z,4.2
2023-04-15T08:29:51.748Z,4.6
2023-04-15T08:32:53.730Z,5.1
2023-04-15T08:35:55.660Z,5.3
2023-04-15T08:38:57.638Z,4.4
2023-04-15T08:41:59.587Z,4.2
2023-04-15T08:45:01.533Z,4.9
2023-04-15T08:48:03.579Z,3.9
2023-04-15T08:51:05.489Z,3.7
2023-04-15T08:54:07.438Z,3.7
2023-04-15T08:57:09.396Z,4.1
2023-04-15T09:00:11.362Z,3
2023-04-15T09:03:13.596Z,3.3
2023-04-15T09:06:15.292Z,2.9
2023-04-15T09:09:17.254Z,2.9
2023-04-15T09:12:19.508Z,2.7
2023-04-15T09:15:21.232Z,2.9
2023-04-15T09:18:23.198Z,2.8
2023-04-15T09:21:25.139Z,3.1
2023-04-15T09:24:27.104Z,2.9
2023-04-15T09:27:29.054Z,3
2023-04-15T09:30:31.200Z,2.5
2023-04-15T09:33:33.003Z,2.5
2023-04-15T09:36:34.930Z,2.5
2023-04-15T09:39:36.920Z,2.4
2023-04-15T09:42:38.903Z,2.7
2023-04-15T09:45:40.876Z,2.3
2023-04-15T09:48:42.832Z,2.4
2023-04-15T09:51:51.300Z,2.5
2023-04-15T09:54:46.752Z,2.5
2023-04-15T09:57:48.730Z,2.1
2023-04-15T10:00:50.714Z,2.1
2023-04-15T10:03:52.744Z,2.1
2023-04-15T10:06:54.613Z,2.2
2023-04-15T10:09:56.632Z,2.3
2023-04-15T10:12:58.600Z,2
2023-04-15T10:16:00.628Z,2.4
2023-04-15T10:19:02.524Z,2.3
2023-04-15T10:22:04.489Z,1.8
2023-04-15T10:25:06.428Z,1.9
2023-04-15T10:28:08.409Z,2.1
2023-04-15T10:31:10.401Z,1.6
2023-04-15T10:34:12.330Z,1.6
2023-04-15T10:37:14.286Z,1.9
2023-04-15T10:40:16.248Z,2.1
2023-04-15T10:43:18.633Z,1.9
2023-04-15T10:46:20.199Z,2.2
2023-04-15T10:49:22.116Z,1.4
2023-04-15T10:52:24.115Z,2
2023-04-15T10:55:26.045Z,1.8
2023-04-15T10:58:27.999Z,2.6
2023-04-15T11:01:29.992Z,2
2023-04-15T11:04:32.101Z,2
2023-04-15T11:07:33.990Z,2.2
2023-04-15T11:10:35.955Z,2.2
2023-04-15T11:13:37.922Z,2.2
2023-04-15T11:16:39.990Z,1.9
2023-04-15T11:19:41.878Z,1.9
2023-04-15T11:22:43.812Z,1.9
2023-04-15T11:25:45.786Z,1.8
2023-04-15T11:28:47.869Z,2.1
2023-04-15T11:31:49.853Z,2.2
2023-04-15T11:34:51.893Z,2.1
2023-04-15T11:37:53.864Z,2.3
2023-04-15T11:40:58.765Z,2
2023-04-15T11:44:00.795Z,2.2
2023-04-15T11:47:02.631Z,2.1
2023-04-15T11:50:04.605Z,1.9
2023-04-15T11:53:08.456Z,2
2023-04-15T11:56:08.528Z,2.2
2023-04-15T11:59:10.607Z,2.2
2023-04-15T12:02:12.612Z,2.2
2023-04-15T12:05:14.619Z,2.2
2023-04-15T12:08:16.547Z,2.2
2023-04-15T12:11:18.498Z,2.6
2023-04-15T12:14:20.471Z,2.5
2023-04-15T12:17:22.428Z,2.6
2023-04-15T12:20:24.404Z,2.5
2023-04-15T12:23:26.341Z,2.3
2023-04-15T12:26:28.442Z,3
2023-04-15T12:29:30.317Z,2.5
2023-04-15T12:32:32.282Z,2.1
2023-04-15T12:35:34.246Z,2.2
2023-04-15T12:38:36.271Z,2.6
2023-04-15T12:41:38.210Z,3.2
2023-04-15T12:44:40.324Z,3.1
2023-04-15T12:47:42.279Z,2.9
2023-04-15T12:50:44.219Z,2.9
2023-04-15T12:53:46.187Z,2.5
2023-04-15T12:56:48.104Z,2.6
2023-04-15T12:59:50.134Z,1.9
2023-04-15T13:02:52.126Z,1.3
2023-04-15T13:05:54.159Z,1.2
2023-04-15T13:08:58.554Z,1.1
2023-04-15T13:11:58.083Z,1.1
2023-04-15T13:15:00.020Z,0.8
2023-04-15T13:18:02.090Z,1
2023-04-15T13:21:05.302Z,1
2023-04-15T13:24:06.143Z,1.3
2023-04-15T13:27:08.088Z,0.9
2023-04-15T13:30:10.112Z,0.9
2023-04-15T13:33:12.171Z,0.8
2023-04-15T13:36:14.109Z,0.7
2023-04-15T13:39:18.527Z,0.7
2023-04-15T13:42:18.279Z,0.7
2023-04-15T13:45:20.276Z,0.7
2023-04-15T13:48:22.244Z,0.6
2023-04-15T13:51:24.238Z,0.7
2023-04-15T13:54:26.230Z,0.7
2023-04-15T13:57:28.134Z,0.6
2023-04-15T14:00:30.119Z,0.6
2023-04-15T14:03:32.307Z,0.9
2023-04-15T14:06:34.162Z,0.6
2023-04-15T14:12:40.845Z,0.6
2023-04-15T14:15:42.822Z,0.9
2023-04-15T14:18:44.894Z,0.7
2023-04-15T14:21:46.932Z,0.7
2023-04-15T14:24:48.871Z,0.8
2023-04-15T14:27:50.863Z,0.7
2023-04-15T14:30:52.818Z,1
2023-04-15T14:33:54.801Z,0.8
2023-04-15T14:36:56.774Z,0.9
2023-04-15T14:39:58.731Z,0.7
2023-04-15T14:43:00.769Z,0.7
2023-04-15T14:46:02.779Z,0.9
2023-04-15T14:49:04.884Z,1
2023-04-15T14:52:07.344Z,0.7
2023-04-15T14:55:09.346Z,0.9
2023-04-15T14:58:11.319Z,1.1
2023-04-15T15:01:13.358Z,1.1
2023-04-15T15:04:15.350Z,1.3
2023-04-15T15:07:17.385Z,1.3
2023-04-15T15:10:30.298Z,1.1
2023-04-15T15:13:21.339Z,1.2
2023-04-15T15:16:23.323Z,1.2
2023-04-15T15:19:25.255Z,0.9
2023-04-15T15:22:27.234Z,0.8
2023-04-15T15:25:29.203Z,0.9
2023-04-15T15:28:31.149Z,1.2
2023-04-15T15:31:33.161Z,0.9
2023-04-15T15:34:35.200Z,0.6
2023-04-15T15:37:37.116Z,0.7
2023-04-15T15:40:39.042Z,0.7
2023-04-15T15:43:41.032Z,0.6
2023-04-15T15:46:43.046Z,0.7
2023-04-15T15:49:44.973Z,0.7
2023-04-15T15:52:46.937Z,0.6
2023-04-15T15:55:48.904Z,0.9
2023-04-15T15:58:50.907Z,0.6
2023-04-15T16:01:53.027Z,0.5
2023-04-15T16:04:54.922Z,0.8
2023-04-15T16:07:56.902Z,0.7
2023-04-15T16:10:59.032Z,0.9
2023-04-15T16:14:00.975Z,1
2023-04-15T16:17:02.923Z,1
2023-04-15T16:20:04.994Z,1
2023-04-15T16:23:06.975Z,0.9
2023-04-15T16:26:08.962Z,0.9
2023-04-15T16:29:10.954Z,0.9
2023-04-15T16:32:12.974Z,0.9
2023-04-15T16:35:15.108Z,1
2023-04-15T16:38:17.045Z,1
2023-04-15T16:41:19.034Z,1
2023-04-15T16:44:20.984Z,1
2023-04-15T16:47:23.000Z,1.1
2023-04-15T16:50:25.000Z,1.1
2023-04-15T16:53:26.941Z,1
2023-04-15T16:56:28.884Z,0.9
2023-04-15T16:59:30.854Z,1.2
2023-04-15T17:02:32.939Z,1
2023-04-15T17:05:34.756Z,0.9
2023-04-15T17:08:36.722Z,0.9
2023-04-15T17:11:38.695Z,1.1
2023-04-15T17:14:40.660Z,0.9
2023-04-15T17:17:42.706Z,1.1
2023-04-15T17:20:44.558Z,1.3
2023-04-15T17:23:46.567Z,1.3
2023-04-15T17:26:48.538Z,1.2
2023-04-15T17:29:50.484Z,1.2
2023-04-15T17:32:52.482Z,1.1
2023-04-15T17:35:54.554Z,1.1
2023-04-15T17:38:56.359Z,1.2
2023-04-15T17:41:58.329Z,1.3
2023-04-15T17:45:00.283Z,1.1
2023-04-15T17:48:02.229Z,1.1
2023-04-15T17:51:04.166Z,1
2023-04-15T17:54:06.280Z,1
2023-04-15T17:57:08.095Z,1.1
2023-04-15T18:00:10.045Z,1.2
2023-04-15T18:03:12.123Z,1.3
2023-04-15T18:06:14.018Z,1.4
2023-04-15T18:09:16.016Z,1.3
2023-04-15T18:12:17.968Z,1.2
2023-04-15T18:15:20.077Z,1.1
2023-04-15T18:18:21.866Z,1.1
2023-04-15T18:21:23.811Z,1.1
2023-04-15T18:24:25.764Z,1.3
2023-04-15T18:27:27.733Z,1.1
2023-04-15T18:30:29.690Z,1.3
2023-04-15T18:33:31.640Z,1.1
2023-04-15T18:36:33.598Z,1.3
2023-04-15T18:39:35.542Z,1.3
2023-04-15T18:42:37.513Z,1.3
2023-04-15T18:45:39.495Z,1.4
2023-04-15T18:48:41.434Z,1.3
2023-04-15T18:51:43.407Z,1.4
2023-04-15T18:57:47.349Z,1.3
2023-04-15T19:00:49.312Z,1.7
2023-04-15T19:03:51.253Z,1.5
2023-04-15T19:06:53.195Z,1.8
2023-04-15T19:09:55.156Z,1.6
2023-04-15T19:12:57.107Z,1.7
2023-04-15T19:15:59.067Z,1.5
2023-04-15T19:19:01.021Z,1.9
2023-04-15T19:22:02.982Z,1.6
2023-04-15T19:25:04.954Z,1.7
2023-04-15T19:28:06.915Z,1.4
2023-04-15T19:31:08.914Z,1.5
2023-04-15T19:34:10.831Z,1.7
2023-04-15T19:37:12.831Z,1.3
2023-04-15T19:40:14.738Z,1.7
2023-04-15T19:43:16.722Z,1.6
2023-04-15T19:46:18.714Z,1.8
2023-04-15T19:49:20.616Z,1.6
2023-04-15T19:52:22.549Z,1.5
2023-04-15T19:55:24.529Z,1.6
2023-04-15T19:58:26.467Z,1.5
2023-04-15T20:01:28.484Z,1.8
2023-04-15T20:04:30.452Z,1.5
2023-04-15T20:07:32.367Z,1.6
2023-04-15T20:10:34.334Z,1.7
2023-04-15T20:13:36.293Z,1.6
2023-04-15T20:16:38.235Z,1.9
2023-04-15T20:19:40.208Z,1.8
2023-04-15T20:22:42.183Z,1.8
2023-04-15T20:25:44.095Z,1.9
2023-04-15T20:28:46.048Z,2
2023-04-15T20:31:48.057Z,1.7
2023-04-15T20:34:50.200Z,1.9
2023-04-15T20:37:51.931Z,1.7
2023-04-15T20:40:53.930Z,1.8
2023-04-15T20:43:55.855Z,2
2023-04-15T20:46:57.909Z,1.8
2023-04-15T20:49:59.780Z,1.8
2023-04-15T20:53:01.772Z,1.6
2023-04-15T20:56:03.701Z,1.8
2023-04-15T20:59:05.830Z,1.8
2023-04-15T21:02:07.673Z,1.7
2023-04-15T21:05:09.573Z,1.7
2023-04-15T21:08:11.541Z,2
2023-04-15T21:11:18.303Z,1.9
2023-04-15T21:14:15.507Z,2
2023-04-15T21:17:17.493Z,2.4
2023-04-15T21:20:19.443Z,2.3
2023-04-15T21:23:21.402Z,2.5
2023-04-15T21:26:23.383Z,2.2
2023-04-15T21:29:25.328Z,2.3
2023-04-15T21:32:27.289Z,2.1
2023-04-15T21:35:29.236Z,1.9
2023-04-15T21:38:31.197Z,2.6
2023-04-15T21:41:33.182Z,2.1
2023-04-15T21:44:35.110Z,2.4
2023-04-15T21:47:56.692Z,2.1
2023-04-15T21:50:39.026Z,2.3
2023-04-15T21:53:40.983Z,2
2023-04-15T21:56:42.933Z,2.3
2023-04-15T21:59:44.914Z,2.3
2023-04-15T22:02:46.968Z,2.1
2023-04-15T22:05:48.856Z,2.4
2023-04-15T22:08:56.615Z,2
2023-04-15T22:11:52.758Z,2.4
2023-04-15T22:14:54.722Z,2.2
2023-04-15T22:17:56.710Z,2.5
2023-04-15T22:20:58.643Z,2.4
2023-04-15T22:24:33.266Z,2.5
2023-04-15T22:27:02.540Z,2.7
2023-04-15T22:30:04.500Z,2.5
2023-04-15T22:33:06.475Z,2.9
2023-04-15T22:36:08.420Z,3.1
2023-04-15T22:39:10.361Z,2.8
2023-04-15T22:42:12.355Z,3.7
2023-04-15T22:45:14.337Z,3.4
2023-04-15T22:48:16.240Z,3.5
2023-04-15T22:51:18.212Z,3.4
2023-04-15T22:54:20.390Z,3.5
2023-04-15T22:57:22.106Z,3.9
2023-04-15T23:00:24.093Z,4.4
2023-04-15T23:03:26.116Z,4.3
2023-04-15T23:06:28.050Z,4.3
2023-04-15T23:09:29.961Z,4.6
2023-04-15T23:12:31.914Z,4.2
2023-04-15T23:15:33.902Z,4.7
2023-04-15T23:18:35.861Z,4
2023-04-15T23:21:37.823Z,5
2023-04-15T23:24:39.788Z,5.1
2023-04-15T23:27:41.736Z,5
2023-04-15T23:30:43.709Z,5.1
2023-04-15T23:33:45.654Z,4.9
2023-04-15T23:36:47.621Z,5.5
2023-04-15T23:39:49.585Z,5.6
2023-04-15T23:42:51.549Z,6.3
2023-04-15T23:45:53.500Z,5.6
2023-04-15T23:48:55.471Z,5.3
2023-04-15T23:51:57.414Z,5.9
2023-04-15T23:54:59.382Z,5.7
2023-04-15T23:58:01.350Z,5.9
